Terminal Aerodrome Forecast
Issued by NWS

Home | Current Version | Previous Version | Text Only | Print | Product List | Glossary On
Versions: 1 2 3 4 5 6 7 8 9 10 11 12 13 14 15 16 17 18 19 20 21 22 23 24
330
FTUS43 KGRR 171744
TAFBTL
TAF
KBTL 171744Z 1718/1818 11008KT 5SM BR OVC005
     FM171900 11004KT 4SM BR OVC007
     FM172030 13006KT P6SM BKN015
     FM172200 15005KT P6SM BKN025
     FM180100 20006KT 4SM -DZ BR OVC007=

USA.gov is the U.S. government's official web portal to all federal, state and local government web resources and services.